sensor_id;sensor_type;location;lat;lon;timestamp;temperature;humidity
21772;DHT22;11047;47.904;8.110;2024-02-04T03:18:18;3.00;99.90
21772;DHT22;11047;47.904;8.110;2024-02-04T03:20:45;3.00;99.90
21772;DHT22;11047;47.904;8.110;2024-02-04T03:23:11;3.00;99.90
21772;DHT22;11047;47.904;8.110;2024-02-04T03:25:38;2.90;99.90
21772;DHT22;11047;47.904;8.110;2024-02-04T03:28:05;3.00;99.90
21772;DHT22;11047;47.904;8.110;2024-02-04T03:30:32;2.90;99.90
21772;DHT22;11047;47.904;8.110;2024-02-04T03:32:58;3.00;99.90
21772;DHT22;11047;47.904;8.110;2024-02-04T03:35:26;3.00;99.90
21772;DHT22;11047;47.904;8.110;2024-02-04T03:37:53;3.20;99.90
21772;DHT22;11047;47.904;8.110;2024-02-04T03:40:20;3.00;99.90
21772;DHT22;11047;47.904;8.110;2024-02-04T03:42:49;2.90;99.90
21772;DHT22;11047;47.904;8.110;2024-02-04T03:45:16;3.10;99.90
21772;DHT22;11047;47.904;8.110;2024-02-04T03:47:43;3.00;99.90
21772;DHT22;11047;47.904;8.110;2024-02-04T03:50:10;2.80;99.90
21772;DHT22;11047;47.904;8.110;2024-02-04T03:52:38;2.90;99.90
21772;DHT22;11047;47.904;8.110;2024-02-04T03:55:06;2.90;99.90
21772;DHT22;11047;47.904;8.110;2024-02-04T03:57:33;2.80;99.90
21772;DHT22;11047;47.904;8.110;2024-02-04T03:59:59;2.80;99.90
21772;DHT22;11047;47.904;8.110;2024-02-04T04:02:26;2.90;99.90
21772;DHT22;11047;47.904;8.110;2024-02-04T04:04:53;3.60;99.90
21772;DHT22;11047;47.904;8.110;2024-02-04T04:07:19;2.80;99.90
21772;DHT22;11047;47.904;8.110;2024-02-04T04:09:47;2.90;99.90
21772;DHT22;11047;47.904;8.110;2024-02-04T04:12:14;2.80;99.90
21772;DHT22;11047;47.904;8.110;2024-02-04T04:14:41;2.80;99.90
21772;DHT22;11047;47.904;8.110;2024-02-04T04:17:07;2.70;99.90
21772;DHT22;11047;47.904;8.110;2024-02-04T04:19:34;2.70;99.90
21772;DHT22;11047;47.904;8.110;2024-02-04T04:22:02;2.70;99.90
21772;DHT22;11047;47.904;8.110;2024-02-04T04:24:29;2.80;99.90
21772;DHT22;11047;47.904;8.110;2024-02-04T04:26:57;2.70;99.90
21772;DHT22;11047;47.904;8.110;2024-02-04T04:29:23;2.70;99.90
21772;DHT22;11047;47.904;8.110;2024-02-04T04:31:51;3.20;99.90
21772;DHT22;11047;47.904;8.110;2024-02-04T04:34:18;3.60;99.90
21772;DHT22;11047;47.904;8.110;2024-02-04T04:36:45;2.90;99.90
21772;DHT22;11047;47.904;8.110;2024-02-04T04:39:11;2.90;99.90
21772;DHT22;11047;47.904;8.110;2024-02-04T04:41:39;2.80;99.90
21772;DHT22;11047;47.904;8.110;2024-02-04T04:44:07;2.80;99.90
21772;DHT22;11047;47.904;8.110;2024-02-04T04:46:37;2.80;99.90
21772;DHT22;11047;47.904;8.110;2024-02-04T04:49:03;2.80;99.90
21772;DHT22;11047;47.904;8.110;2024-02-04T04:51:30;2.90;99.90
21772;DHT22;11047;47.904;8.110;2024-02-04T04:53:57;2.90;99.90
21772;DHT22;11047;47.904;8.110;2024-02-04T04:56:24;2.90;99.90
21772;DHT22;11047;47.904;8.110;2024-02-04T04:58:50;2.80;99.90
21772;DHT22;11047;47.904;8.110;2024-02-04T05:01:19;3.10;99.90
21772;DHT22;11047;47.904;8.110;2024-02-04T05:03:45;2.70;99.90
21772;DHT22;11047;47.904;8.110;2024-02-04T05:06:13;2.70;99.90
21772;DHT22;11047;47.904;8.110;2024-02-04T05:08:40;2.60;99.90
21772;DHT22;11047;47.904;8.110;2024-02-04T05:11:06;2.90;99.90
21772;DHT22;11047;47.904;8.110;2024-02-04T05:13:33;2.40;99.90
21772;DHT22;11047;47.904;8.110;2024-02-04T05:16:00;2.60;99.90
21772;DHT22;11047;47.904;8.110;2024-02-04T05:18:28;2.60;99.90
21772;DHT22;11047;47.904;8.110;2024-02-04T05:20:54;2.70;99.90
21772;DHT22;11047;47.904;8.110;2024-02-04T05:23:21;2.70;99.90
21772;DHT22;11047;47.904;8.110;2024-02-04T05:25:48;2.70;99.90
21772;DHT22;11047;47.904;8.110;2024-02-04T05:28:15;2.70;99.90
21772;DHT22;11047;47.904;8.110;2024-02-04T05:30:41;2.80;99.90
21772;DHT22;11047;47.904;8.110;2024-02-04T05:33:08;2.60;99.90
21772;DHT22;11047;47.904;8.110;2024-02-04T05:35:36;2.60;99.90
21772;DHT22;11047;47.904;8.110;2024-02-04T05:38:03;2.60;99.90
21772;DHT22;11047;47.904;8.110;2024-02-04T05:40:30;2.60;99.90
21772;DHT22;11047;47.904;8.110;2024-02-04T05:42:57;2.70;99.90
21772;DHT22;11047;47.904;8.110;2024-02-04T05:45:23;2.70;99.90
21772;DHT22;11047;47.904;8.110;2024-02-04T05:47:50;2.70;99.90
21772;DHT22;11047;47.904;8.110;2024-02-04T05:50:17;2.70;99.90
21772;DHT22;11047;47.904;8.110;2024-02-04T05:52:45;3.20;99.90
21772;DHT22;11047;47.904;8.110;2024-02-04T05:55:12;2.70;99.90
21772;DHT22;11047;47.904;8.110;2024-02-04T05:57:38;2.60;99.90
21772;DHT22;11047;47.904;8.110;2024-02-04T06:00:05;2.70;99.90
21772;DHT22;11047;47.904;8.110;2024-02-04T06:02:33;2.70;99.90
21772;DHT22;11047;47.904;8.110;2024-02-04T06:04:59;2.70;99.90
21772;DHT22;11047;47.904;8.110;2024-02-04T06:07:26;2.70;99.90
21772;DHT22;11047;47.904;8.110;2024-02-04T06:09:54;2.80;99.90
21772;DHT22;11047;47.904;8.110;2024-02-04T06:12:21;3.00;99.90
21772;DHT22;11047;47.904;8.110;2024-02-04T06:14:48;2.70;99.90
21772;DHT22;11047;47.904;8.110;2024-02-04T06:17:15;2.80;99.90
21772;DHT22;11047;47.904;8.110;2024-02-04T06:19:41;2.70;99.90
21772;DHT22;11047;47.904;8.110;2024-02-04T06:22:08;2.70;99.90
21772;DHT22;11047;47.904;8.110;2024-02-04T06:24:35;2.60;99.90
21772;DHT22;11047;47.904;8.110;2024-02-04T06:27:05;2.60;99.90
21772;DHT22;11047;47.904;8.110;2024-02-04T06:29:32;2.40;99.90
21772;DHT22;11047;47.904;8.110;2024-02-04T06:31:59;2.40;99.90
21772;DHT22;11047;47.904;8.110;2024-02-04T06:34:25;2.40;99.90
21772;DHT22;11047;47.904;8.110;2024-02-04T06:36:53;2.40;99.90
21772;DHT22;11047;47.904;8.110;2024-02-04T06:39:20;2.40;99.90
21772;DHT22;11047;47.904;8.110;2024-02-04T06:41:47;2.40;99.90
21772;DHT22;11047;47.904;8.110;2024-02-04T06:44:15;2.40;99.90
21772;DHT22;11047;47.904;8.110;2024-02-04T06:46:42;2.40;99.90
21772;DHT22;11047;47.904;8.110;2024-02-04T06:49:09;2.40;99.90
21772;DHT22;11047;47.904;8.110;2024-02-04T06:51:35;2.40;99.90
21772;DHT22;11047;47.904;8.110;2024-02-04T06:54:03;2.40;99.90
21772;DHT22;11047;47.904;8.110;2024-02-04T06:56:29;2.50;99.90
21772;DHT22;11047;47.904;8.110;2024-02-04T06:58:56;2.40;99.90
21772;DHT22;11047;47.904;8.110;2024-02-04T07:01:24;2.50;99.90
21772;DHT22;11047;47.904;8.110;2024-02-04T07:03:51;2.60;99.90
21772;DHT22;11047;47.904;8.110;2024-02-04T07:06:18;2.80;99.90
21772;DHT22;11047;47.904;8.110;2024-02-04T07:08:44;2.90;99.90
21772;DHT22;11047;47.904;8.110;2024-02-04T07:11:11;2.90;99.90
21772;DHT22;11047;47.904;8.110;2024-02-04T07:13:38;2.70;99.90
21772;DHT22;11047;47.904;8.110;2024-02-04T07:16:04;2.70;99.90
21772;DHT22;11047;47.904;8.110;2024-02-04T07:18:33;2.80;99.90
21772;DHT22;11047;47.904;8.110;2024-02-04T07:20:59;2.70;99.90
21772;DHT22;11047;47.904;8.110;2024-02-04T07:23:26;2.80;99.90
21772;DHT22;11047;47.904;8.110;2024-02-04T07:25:53;2.70;99.90
21772;DHT22;11047;47.904;8.110;2024-02-04T07:28:19;2.70;99.90
21772;DHT22;11047;47.904;8.110;2024-02-04T07:30:46;2.80;99.90
21772;DHT22;11047;47.904;8.110;2024-02-04T07:33:13;2.80;99.90
21772;DHT22;11047;47.904;8.110;2024-02-04T07:35:41;2.90;99.90
21772;DHT22;11047;47.904;8.110;2024-02-04T07:38:07;3.10;99.90
21772;DHT22;11047;47.904;8.110;2024-02-04T07:40:34;3.80;99.90
21772;DHT22;11047;47.904;8.110;2024-02-04T07:43:01;2.90;99.90
21772;DHT22;11047;47.904;8.110;2024-02-04T07:45:27;2.80;99.90
21772;DHT22;11047;47.904;8.110;2024-02-04T07:47:54;3.00;99.90
21772;DHT22;11047;47.904;8.110;2024-02-04T07:50:21;2.90;99.90
21772;DHT22;11047;47.904;8.110;2024-02-04T07:52:49;3.00;99.90
21772;DHT22;11047;47.904;8.110;2024-02-04T07:55:16;2.80;99.90
21772;DHT22;11047;47.904;8.110;2024-02-04T07:57:42;2.80;99.90
21772;DHT22;11047;47.904;8.110;2024-02-04T08:00:09;2.80;99.90
21772;DHT22;11047;47.904;8.110;2024-02-04T08:02:36;2.80;99.90
21772;DHT22;11047;47.904;8.110;2024-02-04T08:05:03;2.80;99.90
21772;DHT22;11047;47.904;8.110;2024-02-04T08:07:30;2.80;99.90
21772;DHT22;11047;47.904;8.110;2024-02-04T08:09:58;2.90;99.90
21772;DHT22;11047;47.904;8.110;2024-02-04T08:12:25;2.70;99.90
21772;DHT22;11047;47.904;8.110;2024-02-04T08:14:52;2.80;99.90
21772;DHT22;11047;47.904;8.110;2024-02-04T08:17:18;3.00;99.90
21772;DHT22;11047;47.904;8.110;2024-02-04T08:19:45;3.00;99.90
21772;DHT22;11047;47.904;8.110;2024-02-04T08:22:12;3.70;99.90
21772;DHT22;11047;47.904;8.110;2024-02-04T08:24:39;3.20;99.90
21772;DHT22;11047;47.904;8.110;2024-02-04T08:27:07;3.30;99.90
21772;DHT22;11047;47.904;8.110;2024-02-04T08:29:33;3.50;99.90
21772;DHT22;11047;47.904;8.110;2024-02-04T08:32:00;3.50;99.90
21772;DHT22;11047;47.904;8.110;2024-02-04T08:34:27;3.60;99.90
21772;DHT22;11047;47.904;8.110;2024-02-04T08:36:54;3.60;99.90
21772;DHT22;11047;47.904;8.110;2024-02-04T08:39:21;4.20;99.90
21772;DHT22;11047;47.904;8.110;2024-02-04T08:41:48;3.90;99.90
21772;DHT22;11047;47.904;8.110;2024-02-04T08:44:16;3.90;99.90
21772;DHT22;11047;47.904;8.110;2024-02-04T08:46:42;4.10;99.90
21772;DHT22;11047;47.904;8.110;2024-02-04T08:49:09;4.60;99.90
21772;DHT22;11047;47.904;8.110;2024-02-04T08:51:36;4.00;99.90
21772;DHT22;11047;47.904;8.110;2024-02-04T08:54:02;3.90;99.90
21772;DHT22;11047;47.904;8.110;2024-02-04T08:56:29;4.00;99.90
21772;DHT22;11047;47.904;8.110;2024-02-04T08:58:56;3.70;99.90
21772;DHT22;11047;47.904;8.110;2024-02-04T09:01:24;3.80;99.90
21772;DHT22;11047;47.904;8.110;2024-02-04T09:03:50;3.90;99.90
21772;DHT22;11047;47.904;8.110;2024-02-04T09:06:17;3.80;99.90
21772;DHT22;11047;47.904;8.110;2024-02-04T09:08:44;3.80;99.90
21772;DHT22;11047;47.904;8.110;2024-02-04T09:11:11;3.70;99.90
21772;DHT22;11047;47.904;8.110;2024-02-04T09:13:44;4.30;99.90
21772;DHT22;11047;47.904;8.110;2024-02-04T09:16:10;3.80;99.90
21772;DHT22;11047;47.904;8.110;2024-02-04T09:18:38;3.90;99.90
21772;DHT22;11047;47.904;8.110;2024-02-04T09:21:05;4.00;99.90
21772;DHT22;11047;47.904;8.110;2024-02-04T09:23:32;4.00;99.90
21772;DHT22;11047;47.904;8.110;2024-02-04T09:25:59;4.20;99.90
21772;DHT22;11047;47.904;8.110;2024-02-04T09:28:26;4.20;99.90
21772;DHT22;11047;47.904;8.110;2024-02-04T09:30:52;4.20;99.90
21772;DHT22;11047;47.904;8.110;2024-02-04T09:33:19;4.50;99.90
21772;DHT22;11047;47.904;8.110;2024-02-04T09:35:47;5.40;99.90
21772;DHT22;11047;47.904;8.110;2024-02-04T09:38:14;4.90;99.90
21772;DHT22;11047;47.904;8.110;2024-02-04T09:40:41;5.20;99.90
21772;DHT22;11047;47.904;8.110;2024-02-04T09:43:08;5.50;99.90
21772;DHT22;11047;47.904;8.110;2024-02-04T09:45:35;5.80;99.90
21772;DHT22;11047;47.904;8.110;2024-02-04T09:48:01;6.10;99.90
21772;DHT22;11047;47.904;8.110;2024-02-04T09:50:30;6.20;99.90
21772;DHT22;11047;47.904;8.110;2024-02-04T09:52:59;6.50;99.90
21772;DHT22;11047;47.904;8.110;2024-02-04T09:55:26;5.80;99.90
21772;DHT22;11047;47.904;8.110;2024-02-04T09:57:53;6.00;99.90
21772;DHT22;11047;47.904;8.110;2024-02-04T10:00:20;5.90;99.90
21772;DHT22;11047;47.904;8.110;2024-02-04T10:02:47;6.60;99.90
21772;DHT22;11047;47.904;8.110;2024-02-04T10:05:14;6.50;99.90
21772;DHT22;11047;47.904;8.110;2024-02-04T10:07:41;6.60;99.90
21772;DHT22;11047;47.904;8.110;2024-02-04T10:10:09;7.00;99.90
21772;DHT22;11047;47.904;8.110;2024-02-04T10:12:36;7.10;99.90
21772;DHT22;11047;47.904;8.110;2024-02-04T10:15:04;7.20;99.90
21772;DHT22;11047;47.904;8.110;2024-02-04T10:17:31;7.20;99.90
21772;DHT22;11047;47.904;8.110;2024-02-04T10:19:59;7.20;99.90
21772;DHT22;11047;47.904;8.110;2024-02-04T10:22:26;7.40;99.90
21772;DHT22;11047;47.904;8.110;2024-02-04T10:24:53;7.60;99.90
21772;DHT22;11047;47.904;8.110;2024-02-04T10:27:21;7.60;99.90
21772;DHT22;11047;47.904;8.110;2024-02-04T10:29:48;8.20;99.90
21772;DHT22;11047;47.904;8.110;2024-02-04T10:32:15;8.10;99.90
21772;DHT22;11047;47.904;8.110;2024-02-04T10:34:41;8.60;99.90
21772;DHT22;11047;47.904;8.110;2024-02-04T10:37:08;8.80;99.90
21772;DHT22;11047;47.904;8.110;2024-02-04T10:39:35;8.20;99.90
21772;DHT22;11047;47.904;8.110;2024-02-04T10:42:02;7.80;99.90
21772;DHT22;11047;47.904;8.110;2024-02-04T10:44:35;7.40;99.90
21772;DHT22;11047;47.904;8.110;2024-02-04T10:47:02;6.70;99.90
21772;DHT22;11047;47.904;8.110;2024-02-04T10:49:31;6.40;99.90
21772;DHT22;11047;47.904;8.110;2024-02-04T10:52:03;5.90;99.90
21772;DHT22;11047;47.904;8.110;2024-02-04T10:54:33;5.80;99.90
21772;DHT22;11047;47.904;8.110;2024-02-04T10:57:03;5.90;99.90
21772;DHT22;11047;47.904;8.110;2024-02-04T10:59:33;6.00;99.90
21772;DHT22;11047;47.904;8.110;2024-02-04T11:02:00;6.60;99.90
21772;DHT22;11047;47.904;8.110;2024-02-04T11:04:27;6.10;99.90
21772;DHT22;11047;47.904;8.110;2024-02-04T11:06:55;6.20;99.90
21772;DHT22;11047;47.904;8.110;2024-02-04T11:09:22;6.50;99.90
21772;DHT22;11047;47.904;8.110;2024-02-04T11:11:49;7.20;99.90
21772;DHT22;11047;47.904;8.110;2024-02-04T11:14:17;7.00;99.90
21772;DHT22;11047;47.904;8.110;2024-02-04T11:16:50;7.10;99.90
21772;DHT22;11047;47.904;8.110;2024-02-04T11:19:23;7.10;99.90
21772;DHT22;11047;47.904;8.110;2024-02-04T11:21:58;7.20;99.90
21772;DHT22;11047;47.904;8.110;2024-02-04T11:24:33;7.60;99.90
21772;DHT22;11047;47.904;8.110;2024-02-04T11:27:02;7.60;99.90
21772;DHT22;11047;47.904;8.110;2024-02-04T11:29:29;7.70;99.90
21772;DHT22;11047;47.904;8.110;2024-02-04T11:31:58;8.00;99.90
21772;DHT22;11047;47.904;8.110;2024-02-04T11:34:24;7.90;99.90
21772;DHT22;11047;47.904;8.110;2024-02-04T11:36:51;7.80;99.90
21772;DHT22;11047;47.904;8.110;2024-02-04T11:39:18;7.80;99.90
21772;DHT22;11047;47.904;8.110;2024-02-04T11:41:48;7.90;99.90
21772;DHT22;11047;47.904;8.110;2024-02-04T11:44:19;8.00;99.90
21772;DHT22;11047;47.904;8.110;2024-02-04T11:46:46;8.10;99.90
21772;DHT22;11047;47.904;8.110;2024-02-04T11:49:15;7.90;99.90
21772;DHT22;11047;47.904;8.110;2024-02-04T11:51:44;8.10;99.90
21772;DHT22;11047;47.904;8.110;2024-02-04T11:54:11;8.00;99.90
21772;DHT22;11047;47.904;8.110;2024-02-04T11:56:39;8.00;99.90
21772;DHT22;11047;47.904;8.110;2024-02-04T11:59:05;8.20;99.90
21772;DHT22;11047;47.904;8.110;2024-02-04T12:01:33;8.40;99.90
21772;DHT22;11047;47.904;8.110;2024-02-04T12:04:08;8.10;99.90
21772;DHT22;11047;47.904;8.110;2024-02-04T12:06:36;8.10;99.90
21772;DHT22;11047;47.904;8.110;2024-02-04T12:09:03;8.10;99.90
21772;DHT22;11047;47.904;8.110;2024-02-04T12:11:32;7.90;99.90
21772;DHT22;11047;47.904;8.110;2024-02-04T12:14:00;7.50;99.90
21772;DHT22;11047;47.904;8.110;2024-02-04T12:16:27;7.90;99.90
21772;DHT22;11047;47.904;8.110;2024-02-04T12:18:54;7.70;99.90
21772;DHT22;11047;47.904;8.110;2024-02-04T12:21:21;7.60;99.90
21772;DHT22;11047;47.904;8.110;2024-02-04T12:23:50;7.90;99.90
21772;DHT22;11047;47.904;8.110;2024-02-04T12:26:17;7.70;99.90
21772;DHT22;11047;47.904;8.110;2024-02-04T12:28:43;7.50;99.90
21772;DHT22;11047;47.904;8.110;2024-02-04T12:31:16;7.60;99.90
21772;DHT22;11047;47.904;8.110;2024-02-04T12:33:43;7.40;99.90
21772;DHT22;11047;47.904;8.110;2024-02-04T12:36:09;7.70;99.90
21772;DHT22;11047;47.904;8.110;2024-02-04T12:38:36;7.80;99.90
21772;DHT22;11047;47.904;8.110;2024-02-04T12:41:04;7.30;99.90
21772;DHT22;11047;47.904;8.110;2024-02-04T12:43:31;7.40;99.90
21772;DHT22;11047;47.904;8.110;2024-02-04T12:45:58;7.40;99.90
21772;DHT22;11047;47.904;8.110;2024-02-04T12:48:24;7.50;99.90
21772;DHT22;11047;47.904;8.110;2024-02-04T12:50:53;7.90;99.90
21772;DHT22;11047;47.904;8.110;2024-02-04T12:53:19;7.90;99.90
21772;DHT22;11047;47.904;8.110;2024-02-04T12:55:46;8.10;99.90
21772;DHT22;11047;47.904;8.110;2024-02-04T12:58:15;8.30;99.90
21772;DHT22;11047;47.904;8.110;2024-02-04T13:00:42;8.50;99.90
21772;DHT22;11047;47.904;8.110;2024-02-04T13:03:09;8.40;99.90
21772;DHT22;11047;47.904;8.110;2024-02-04T13:05:36;8.40;99.90
21772;DHT22;11047;47.904;8.110;2024-02-04T13:08:03;8.30;99.90
21772;DHT22;11047;47.904;8.110;2024-02-04T13:10:31;8.30;99.90
21772;DHT22;11047;47.904;8.110;2024-02-04T13:12:59;8.70;99.90
21772;DHT22;11047;47.904;8.110;2024-02-04T13:15:28;8.40;99.90
21772;DHT22;11047;47.904;8.110;2024-02-04T13:17:55;8.30;99.90
21772;DHT22;11047;47.904;8.110;2024-02-04T13:20:21;8.50;99.90
21772;DHT22;11047;47.904;8.110;2024-02-04T13:22:48;8.40;99.90
21772;DHT22;11047;47.904;8.110;2024-02-04T13:25:15;8.30;99.90
21772;DHT22;11047;47.904;8.110;2024-02-04T13:27:41;8.40;99.90
21772;DHT22;11047;47.904;8.110;2024-02-04T13:30:09;8.20;99.90
21772;DHT22;11047;47.904;8.110;2024-02-04T13:32:39;8.10;99.90
21772;DHT22;11047;47.904;8.110;2024-02-04T13:35:07;7.80;99.90
21772;DHT22;11047;47.904;8.110;2024-02-04T13:37:34;7.90;99.90
21772;DHT22;11047;47.904;8.110;2024-02-04T13:40:02;8.10;99.90
21772;DHT22;11047;47.904;8.110;2024-02-04T13:42:29;8.20;99.90
21772;DHT22;11047;47.904;8.110;2024-02-04T13:44:56;8.30;99.90
21772;DHT22;11047;47.904;8.110;2024-02-04T13:47:23;8.40;99.90
21772;DHT22;11047;47.904;8.110;2024-02-04T13:49:51;8.50;99.90
21772;DHT22;11047;47.904;8.110;2024-02-04T13:52:17;8.50;99.90
21772;DHT22;11047;47.904;8.110;2024-02-04T13:54:44;8.60;99.90
21772;DHT22;11047;47.904;8.110;2024-02-04T13:57:11;8.70;99.90
21772;DHT22;11047;47.904;8.110;2024-02-04T13:59:37;8.60;99.90
21772;DHT22;11047;47.904;8.110;2024-02-04T14:02:04;8.60;99.90
21772;DHT22;11047;47.904;8.110;2024-02-04T14:04:33;8.60;99.90
21772;DHT22;11047;47.904;8.110;2024-02-04T14:07:01;8.70;99.90
21772;DHT22;11047;47.904;8.110;2024-02-04T14:09:28;8.90;99.90
21772;DHT22;11047;47.904;8.110;2024-02-04T14:11:55;8.80;99.90
21772;DHT22;11047;47.904;8.110;2024-02-04T14:14:22;8.70;99.90
21772;DHT22;11047;47.904;8.110;2024-02-04T14:16:49;8.60;99.90
21772;DHT22;11047;47.904;8.110;2024-02-04T14:19:16;8.70;99.90
21772;DHT22;11047;47.904;8.110;2024-02-04T14:21:43;8.60;99.90
21772;DHT22;11047;47.904;8.110;2024-02-04T14:24:11;8.50;99.90
21772;DHT22;11047;47.904;8.110;2024-02-04T14:26:38;8.50;99.90
21772;DHT22;11047;47.904;8.110;2024-02-04T14:29:06;8.50;99.90
21772;DHT22;11047;47.904;8.110;2024-02-04T14:31:33;8.30;99.90
21772;DHT22;11047;47.904;8.110;2024-02-04T14:33:59;8.30;99.90
21772;DHT22;11047;47.904;8.110;2024-02-04T14:36:26;8.20;99.90
21772;DHT22;11047;47.904;8.110;2024-02-04T14:38:53;8.30;99.90
21772;DHT22;11047;47.904;8.110;2024-02-04T14:41:21;8.40;99.90
21772;DHT22;11047;47.904;8.110;2024-02-04T14:43:48;7.90;99.90
21772;DHT22;11047;47.904;8.110;2024-02-04T14:46:15;7.90;99.90
21772;DHT22;11047;47.904;8.110;2024-02-04T14:48:42;7.80;99.90
21772;DHT22;11047;47.904;8.110;2024-02-04T14:51:09;8.00;99.90
21772;DHT22;11047;47.904;8.110;2024-02-04T14:53:36;7.70;99.90
21772;DHT22;11047;47.904;8.110;2024-02-04T14:56:03;8.00;99.90
21772;DHT22;11047;47.904;8.110;2024-02-04T14:58:31;7.80;99.90
21772;DHT22;11047;47.904;8.110;2024-02-04T15:00:58;7.80;99.90
21772;DHT22;11047;47.904;8.110;2024-02-04T15:03:25;7.80;99.90
21772;DHT22;11047;47.904;8.110;2024-02-04T15:05:51;7.70;99.90
21772;DHT22;11047;47.904;8.110;2024-02-04T15:08:18;7.60;99.90
21772;DHT22;11047;47.904;8.110;2024-02-04T15:10:45;7.40;99.90
21772;DHT22;11047;47.904;8.110;2024-02-04T15:13:11;7.40;99.90
21772;DHT22;11047;47.904;8.110;2024-02-04T15:15:40;7.10;99.90
21772;DHT22;11047;47.904;8.110;2024-02-04T15:18:07;7.20;99.90
21772;DHT22;11047;47.904;8.110;2024-02-04T15:20:34;7.10;99.90
21772;DHT22;11047;47.904;8.110;2024-02-04T15:23:02;7.00;99.90
21772;DHT22;11047;47.904;8.110;2024-02-04T15:25:29;7.00;99.90
21772;DHT22;11047;47.904;8.110;2024-02-04T15:27:56;7.10;99.90
21772;DHT22;11047;47.904;8.110;2024-02-04T15:30:23;7.10;99.90
21772;DHT22;11047;47.904;8.110;2024-02-04T15:32:52;7.20;99.90
21772;DHT22;11047;47.904;8.110;2024-02-04T15:35:20;7.20;99.90
21772;DHT22;11047;47.904;8.110;2024-02-04T15:37:47;7.20;99.90
21772;DHT22;11047;47.904;8.110;2024-02-04T15:40:13;7.30;99.90
21772;DHT22;11047;47.904;8.110;2024-02-04T15:42:40;7.30;99.90
21772;DHT22;11047;47.904;8.110;2024-02-04T15:45:07;7.10;99.90
21772;DHT22;11047;47.904;8.110;2024-02-04T15:47:34;7.00;99.90
21772;DHT22;11047;47.904;8.110;2024-02-04T15:50:06;7.00;99.90
21772;DHT22;11047;47.904;8.110;2024-02-04T15:52:34;7.00;99.90
21772;DHT22;11047;47.904;8.110;2024-02-04T15:55:01;7.00;99.90
21772;DHT22;11047;47.904;8.110;2024-02-04T15:57:31;6.90;99.90
21772;DHT22;11047;47.904;8.110;2024-02-04T16:00:01;7.30;99.90
21772;DHT22;11047;47.904;8.110;2024-02-04T16:02:36;6.80;99.90
21772;DHT22;11047;47.904;8.110;2024-02-04T16:05:05;6.70;99.90
21772;DHT22;11047;47.904;8.110;2024-02-04T16:07:32;6.40;99.90
21772;DHT22;11047;47.904;8.110;2024-02-04T16:10:00;6.40;99.90
21772;DHT22;11047;47.904;8.110;2024-02-04T16:12:27;6.40;99.90
21772;DHT22;11047;47.904;8.110;2024-02-04T16:14:54;6.40;99.90
21772;DHT22;11047;47.904;8.110;2024-02-04T16:17:23;6.40;99.90
21772;DHT22;11047;47.904;8.110;2024-02-04T16:19:51;6.30;99.90
21772;DHT22;11047;47.904;8.110;2024-02-04T16:22:20;6.00;99.90
21772;DHT22;11047;47.904;8.110;2024-02-04T16:24:46;5.90;99.90
21772;DHT22;11047;47.904;8.110;2024-02-04T16:27:13;5.90;99.90
21772;DHT22;11047;47.904;8.110;2024-02-04T16:29:40;5.70;99.90
21772;DHT22;11047;47.904;8.110;2024-02-04T16:32:07;5.80;99.90
21772;DHT22;11047;47.904;8.110;2024-02-04T16:34:34;5.80;99.90
21772;DHT22;11047;47.904;8.110;2024-02-04T16:37:01;6.20;99.90
21772;DHT22;11047;47.904;8.110;2024-02-04T16:39:31;5.80;99.90
21772;DHT22;11047;47.904;8.110;2024-02-04T16:41:58;5.80;99.90
21772;DHT22;11047;47.904;8.110;2024-02-04T16:44:25;5.60;99.90
21772;DHT22;11047;47.904;8.110;2024-02-04T16:46:53;5.50;99.90
21772;DHT22;11047;47.904;8.110;2024-02-04T16:49:21;5.30;99.90
21772;DHT22;11047;47.904;8.110;2024-02-04T16:51:48;5.40;99.90
21772;DHT22;11047;47.904;8.110;2024-02-04T16:54:15;5.40;99.90
21772;DHT22;11047;47.904;8.110;2024-02-04T16:56:44;5.30;99.90
21772;DHT22;11047;47.904;8.110;2024-02-04T16:59:12;5.20;99.90
21772;DHT22;11047;47.904;8.110;2024-02-04T17:01:39;5.10;99.90
21772;DHT22;11047;47.904;8.110;2024-02-04T17:04:06;5.00;99.90
21772;DHT22;11047;47.904;8.110;2024-02-04T17:06:33;5.00;99.90
21772;DHT22;11047;47.904;8.110;2024-02-04T17:09:00;5.00;99.90
21772;DHT22;11047;47.904;8.110;2024-02-04T17:11:27;5.00;99.90
21772;DHT22;11047;47.904;8.110;2024-02-04T17:13:56;5.00;99.90
21772;DHT22;11047;47.904;8.110;2024-02-04T17:16:26;5.00;99.90
21772;DHT22;11047;47.904;8.110;2024-02-04T17:18:57;4.80;99.90
21772;DHT22;11047;47.904;8.110;2024-02-04T17:21:30;4.80;99.90
21772;DHT22;11047;47.904;8.110;2024-02-04T17:24:03;4.60;99.90
21772;DHT22;11047;47.904;8.110;2024-02-04T17:26:34;4.60;99.90
21772;DHT22;11047;47.904;8.110;2024-02-04T17:29:03;4.60;99.90
21772;DHT22;11047;47.904;8.110;2024-02-04T17:31:30;4.70;99.90
21772;DHT22;11047;47.904;8.110;2024-02-04T17:33:59;4.70;99.90
21772;DHT22;11047;47.904;8.110;2024-02-04T17:36:26;4.70;99.90
21772;DHT22;11047;47.904;8.110;2024-02-04T17:38:53;4.60;99.90
21772;DHT22;11047;47.904;8.110;2024-02-04T17:41:20;4.60;99.90
21772;DHT22;11047;47.904;8.110;2024-02-04T17:43:46;4.50;99.90
21772;DHT22;11047;47.904;8.110;2024-02-04T17:46:14;4.50;99.90
21772;DHT22;11047;47.904;8.110;2024-02-04T17:48:41;4.70;99.90
21772;DHT22;11047;47.904;8.110;2024-02-04T17:51:08;4.80;99.90
21772;DHT22;11047;47.904;8.110;2024-02-04T17:53:35;4.70;99.90
21772;DHT22;11047;47.904;8.110;2024-02-04T17:56:01;4.60;99.90
21772;DHT22;11047;47.904;8.110;2024-02-04T17:58:28;4.40;99.90
21772;DHT22;11047;47.904;8.110;2024-02-04T18:00:55;4.30;99.90
21772;DHT22;11047;47.904;8.110;2024-02-04T18:03:23;4.40;99.90
21772;DHT22;11047;47.904;8.110;2024-02-04T18:05:50;4.30;99.90
21772;DHT22;11047;47.904;8.110;2024-02-04T18:08:16;4.20;99.90
21772;DHT22;11047;47.904;8.110;2024-02-04T18:10:43;4.20;99.90
21772;DHT22;11047;47.904;8.110;2024-02-04T18:13:10;4.10;99.90
21772;DHT22;11047;47.904;8.110;2024-02-04T18:15:38;4.10;99.90
21772;DHT22;11047;47.904;8.110;2024-02-04T18:18:05;4.10;99.90
21772;DHT22;11047;47.904;8.110;2024-02-04T18:20:33;4.20;99.90
21772;DHT22;11047;47.904;8.110;2024-02-04T18:23:00;4.20;99.90
21772;DHT22;11047;47.904;8.110;2024-02-04T18:25:28;4.30;99.90
21772;DHT22;11047;47.904;8.110;2024-02-04T18:27:54;4.20;99.90
21772;DHT22;11047;47.904;8.110;2024-02-04T18:30:21;4.20;99.90
21772;DHT22;11047;47.904;8.110;2024-02-04T18:32:49;4.20;99.90
21772;DHT22;11047;47.904;8.110;2024-02-04T18:35:15;4.10;99.90
21772;DHT22;11047;47.904;8.110;2024-02-04T18:37:44;4.10;99.90
21772;DHT22;11047;47.904;8.110;2024-02-04T18:40:11;4.30;99.90
21772;DHT22;11047;47.904;8.110;2024-02-04T18:42:38;3.90;99.90
21772;DHT22;11047;47.904;8.110;2024-02-04T18:45:05;4.00;99.90
21772;DHT22;11047;47.904;8.110;2024-02-04T18:47:32;3.90;99.90
21772;DHT22;11047;47.904;8.110;2024-02-04T18:49:59;3.90;99.90
21772;DHT22;11047;47.904;8.110;2024-02-04T18:52:27;3.80;99.90
21772;DHT22;11047;47.904;8.110;2024-02-04T18:54:55;3.80;99.90
21772;DHT22;11047;47.904;8.110;2024-02-04T18:57:22;3.90;99.90
21772;DHT22;11047;47.904;8.110;2024-02-04T19:02:23;3.90;99.90
21772;DHT22;11047;47.904;8.110;2024-02-04T19:04:50;3.80;99.90